createdAt,value
2019-03-24T00:01:59.064Z,90.87
2019-03-24T00:04:25.566Z,82.15
2019-03-24T00:06:51.757Z,85.12
2019-03-24T00:09:17.931Z,85.07
2019-03-24T00:11:44.187Z,85.30
2019-03-24T00:14:10.277Z,84.52
2019-03-24T00:16:36.557Z,85.67
2019-03-24T00:19:03.502Z,92.08
2019-03-24T00:21:30.113Z,89.75
2019-03-24T00:23:56.317Z,85.05
2019-03-24T00:26:23.516Z,88.35
2019-03-24T00:28:49.863Z,94.32
2019-03-24T00:31:15.958Z,93.47
2019-03-24T00:33:42.202Z,99.70
2019-03-24T00:36:08.293Z,93.20
2019-03-24T00:38:34.521Z,96.40
2019-03-24T00:41:00.638Z,94.22
2019-03-24T00:43:28.001Z,94.15
2019-03-24T00:45:54.110Z,90.55
2019-03-24T00:48:20.568Z,89.15
2019-03-24T00:50:46.721Z,89.95
2019-03-24T00:53:12.960Z,94.87
2019-03-24T00:55:39.078Z,93.58
2019-03-24T00:58:05.489Z,90.12
2019-03-24T01:00:43.685Z,94.00
2019-03-24T01:03:09.926Z,88.80
2019-03-24T01:05:36.117Z,86.90
2019-03-24T01:08:02.434Z,92.97
2019-03-24T01:10:28.564Z,91.00
2019-03-24T01:12:55.088Z,90.72
2019-03-24T01:15:21.216Z,89.87
2019-03-24T01:17:47.453Z,88.82
2019-03-24T01:20:13.763Z,86.40
2019-03-24T01:22:39.960Z,85.03
2019-03-24T01:25:06.436Z,96.97
2019-03-24T01:27:32.728Z,88.75
2019-03-24T01:29:59.005Z,87.80
2019-03-24T01:32:25.379Z,87.10
2019-03-24T01:34:51.530Z,92.42
2019-03-24T01:37:17.859Z,86.67
2019-03-24T01:39:44.062Z,84.72
2019-03-24T01:42:10.332Z,86.72
2019-03-24T01:44:36.491Z,98.17
2019-03-24T01:47:02.968Z,91.05
2019-03-24T01:49:29.420Z,86.35
2019-03-24T01:51:55.587Z,87.78
2019-03-24T01:54:21.969Z,90.32
2019-03-24T01:56:48.120Z,92.08
2019-03-24T01:59:15.312Z,91.60
2019-03-24T02:01:41.489Z,89.32
2019-03-24T02:04:07.740Z,89.05
2019-03-24T02:06:34.957Z,86.72
2019-03-24T02:09:01.104Z,88.95
2019-03-24T02:11:27.475Z,87.17
2019-03-24T02:13:53.628Z,95.77
2019-03-24T02:16:19.797Z,93.27
2019-03-24T02:18:45.974Z,89.15
2019-03-24T02:21:12.361Z,93.45
2019-03-24T02:23:38.586Z,87.37
2019-03-24T02:26:04.697Z,87.42
2019-03-24T02:28:30.951Z,81.00
2019-03-24T02:30:57.264Z,90.57
2019-03-24T02:33:23.578Z,87.08
2019-03-24T02:35:49.678Z,92.00
2019-03-24T02:38:15.891Z,94.30
2019-03-24T02:40:42.003Z,94.77
2019-03-24T02:43:08.189Z,88.45
2019-03-24T02:45:34.412Z,89.10
2019-03-24T02:48:00.589Z,81.87
2019-03-24T02:50:26.739Z,88.33
2019-03-24T02:52:53.150Z,88.45
2019-03-24T02:55:19.259Z,85.20
2019-03-24T02:57:45.456Z,85.12
2019-03-24T03:00:11.914Z,93.62
2019-03-24T03:02:38.183Z,84.67
2019-03-24T03:05:06.536Z,87.08
2019-03-24T03:07:32.853Z,90.55
2019-03-24T03:09:58.968Z,88.58
2019-03-24T03:12:25.286Z,83.10
2019-03-24T03:14:51.508Z,87.00
2019-03-24T03:17:18.732Z,86.47
2019-03-24T03:19:44.857Z,80.15
2019-03-24T03:22:11.072Z,91.40
2019-03-24T03:24:37.180Z,90.95
2019-03-24T03:27:03.705Z,89.83
2019-03-24T03:29:29.886Z,87.22
2019-03-24T03:31:56.099Z,89.28
2019-03-24T03:34:22.224Z,89.13
2019-03-24T03:36:48.445Z,86.40
2019-03-24T03:39:14.622Z,85.47
2019-03-24T03:41:41.027Z,86.82
2019-03-24T03:44:07.361Z,86.90
2019-03-24T03:46:33.634Z,92.30
2019-03-24T03:48:59.779Z,89.03
2019-03-24T03:51:26.051Z,83.65
2019-03-24T03:53:52.332Z,81.87
2019-03-24T03:56:18.584Z,83.97
2019-03-24T03:58:44.860Z,93.85
2019-03-24T04:01:11.227Z,88.35
2019-03-24T04:03:37.506Z,87.70
2019-03-24T04:06:03.946Z,86.35
2019-03-24T04:08:30.210Z,88.60
2019-03-24T04:10:56.453Z,86.57
2019-03-24T04:13:22.756Z,85.07
2019-03-24T04:15:49.209Z,81.02
2019-03-24T04:18:15.495Z,90.30
2019-03-24T04:20:41.853Z,78.15
2019-03-24T04:23:08.047Z,89.92
2019-03-24T04:25:34.205Z,80.17
2019-03-24T04:28:01.531Z,83.75
2019-03-24T04:30:27.757Z,88.82
2019-03-24T04:32:53.982Z,82.62
2019-03-24T04:35:20.145Z,83.45
2019-03-24T04:37:46.411Z,87.05
2019-03-24T04:40:12.624Z,94.13
2019-03-24T04:42:38.846Z,99.13
2019-03-24T04:45:05.511Z,92.45
2019-03-24T04:47:31.794Z,92.25
2019-03-24T04:49:58.003Z,93.17
2019-03-24T04:52:24.234Z,101.55
2019-03-24T04:54:50.411Z,97.17
2019-03-24T04:57:16.602Z,89.07
2019-03-24T04:59:42.882Z,91.78
2019-03-24T05:02:09.103Z,92.47
2019-03-24T05:04:35.290Z,99.70
2019-03-24T05:07:01.945Z,100.62
2019-03-24T05:09:28.782Z,101.95
2019-03-24T05:11:55.053Z,102.53
2019-03-24T05:14:21.224Z,101.20
2019-03-24T05:16:47.416Z,103.32
2019-03-24T05:19:13.533Z,102.32
2019-03-24T05:21:39.754Z,93.10
2019-03-24T05:24:05.991Z,94.28
2019-03-24T05:26:32.210Z,99.67
2019-03-24T05:28:58.311Z,96.12
2019-03-24T05:31:24.559Z,103.72
2019-03-24T05:33:50.680Z,105.43
2019-03-24T05:36:16.892Z,101.40
2019-03-24T05:38:43.115Z,102.02
2019-03-24T05:41:09.327Z,101.72
2019-03-24T05:43:35.425Z,99.95
2019-03-24T05:46:01.657Z,94.70
2019-03-24T05:48:27.762Z,97.70
2019-03-24T05:50:53.973Z,101.87
2019-03-24T05:53:20.149Z,92.53
2019-03-24T05:55:46.374Z,101.02
2019-03-24T05:58:12.540Z,102.72
2019-03-24T06:00:38.717Z,97.53
2019-03-24T06:03:04.921Z,87.53
2019-03-24T06:05:31.187Z,101.18
2019-03-24T06:07:57.469Z,92.57
2019-03-24T06:10:23.696Z,100.40
2019-03-24T06:12:49.810Z,93.52
2019-03-24T06:15:16.025Z,101.30
2019-03-24T06:17:47.862Z,106.72
2019-03-24T06:20:10.441Z,102.40
2019-03-24T06:22:36.540Z,100.58
2019-03-24T06:25:04.974Z,97.12
2019-03-24T06:27:31.136Z,87.70
2019-03-24T06:29:57.403Z,92.40
2019-03-24T06:32:23.632Z,94.58
2019-03-24T06:34:49.808Z,90.83
2019-03-24T06:37:16.074Z,83.15
2019-03-24T06:39:42.355Z,86.50
2019-03-24T06:42:08.595Z,88.78
2019-03-24T06:44:34.765Z,86.47
2019-03-24T06:47:00.991Z,92.17
2019-03-24T06:49:27.109Z,85.57
2019-03-24T06:51:53.491Z,99.47
2019-03-24T06:54:19.671Z,96.08
2019-03-24T06:56:45.893Z,93.80
2019-03-24T06:59:12.057Z,102.17
2019-03-24T07:01:38.349Z,93.90
2019-03-24T07:04:04.686Z,93.20
2019-03-24T07:06:30.938Z,87.22
2019-03-24T07:08:57.260Z,92.70
2019-03-24T07:11:23.361Z,92.72
2019-03-24T07:13:49.567Z,82.15
2019-03-24T07:16:15.785Z,98.80
2019-03-24T07:18:41.993Z,88.17
2019-03-24T07:21:08.216Z,88.62
2019-03-24T07:23:34.424Z,90.25
2019-03-24T07:26:00.815Z,85.97
2019-03-24T07:28:27.032Z,75.65
2019-03-24T07:30:53.363Z,76.72
2019-03-24T07:33:19.879Z,68.20
2019-03-24T07:35:46.195Z,71.07
2019-03-24T07:38:12.305Z,68.65
2019-03-24T07:40:38.510Z,68.07
2019-03-24T07:43:04.621Z,65.75
2019-03-24T07:45:31.042Z,70.22
2019-03-24T07:47:57.384Z,65.17
2019-03-24T07:50:23.652Z,70.72
2019-03-24T07:52:50.022Z,66.17
2019-03-24T07:55:16.408Z,64.27
2019-03-24T07:57:42.792Z,62.33
2019-03-24T08:00:10.641Z,61.90
2019-03-24T08:02:36.825Z,64.07
2019-03-24T08:05:04.509Z,65.85
2019-03-24T08:07:30.808Z,59.73
2019-03-24T08:09:57.174Z,64.12
2019-03-24T08:12:23.436Z,56.92
2019-03-24T08:14:49.717Z,62.10
2019-03-24T08:17:15.990Z,58.65
2019-03-24T08:19:42.115Z,58.13
2019-03-24T08:22:08.333Z,58.60
2019-03-24T08:24:34.570Z,59.30
2019-03-24T08:27:00.800Z,58.50
2019-03-24T08:29:26.909Z,51.88
2019-03-24T08:31:53.127Z,56.85
2019-03-24T08:34:19.282Z,52.25
2019-03-24T08:36:45.531Z,58.85
2019-03-24T08:39:11.878Z,53.35
2019-03-24T08:41:38.879Z,52.80
2019-03-24T08:44:05.218Z,53.70
2019-03-24T08:46:31.345Z,52.40
2019-03-24T08:48:57.547Z,55.30
2019-03-24T08:51:23.712Z,53.50
2019-03-24T08:53:49.962Z,50.50
2019-03-24T08:56:16.295Z,47.95
2019-03-24T08:58:42.406Z,51.23
2019-03-24T09:01:08.606Z,49.27
2019-03-24T09:03:34.764Z,48.23
2019-03-24T09:06:01.175Z,50.15
2019-03-24T09:08:27.389Z,47.38
2019-03-24T09:10:53.690Z,46.48
2019-03-24T09:13:19.841Z,44.58
2019-03-24T09:15:46.099Z,55.90
2019-03-24T09:18:12.377Z,52.62
2019-03-24T09:20:41.872Z,50.55
2019-03-24T09:23:06.600Z,46.08
2019-03-24T09:25:32.875Z,46.80
2019-03-24T09:27:59.098Z,46.33
2019-03-24T09:30:27.269Z,42.80
2019-03-24T09:32:55.116Z,44.53
2019-03-24T09:35:21.867Z,42.98
2019-03-24T09:37:48.023Z,39.73
2019-03-24T09:40:18.732Z,44.05
2019-03-24T09:42:45.035Z,44.53
2019-03-24T09:45:11.361Z,43.23
2019-03-24T09:47:37.643Z,41.13
2019-03-24T09:50:04.736Z,39.20
2019-03-24T09:52:30.995Z,46.23
2019-03-24T09:54:57.226Z,40.55
2019-03-24T09:57:23.398Z,50.83
2019-03-24T09:59:49.614Z,60.23
2019-03-24T10:02:15.794Z,63.05
2019-03-24T10:04:42.066Z,61.33
2019-03-24T10:07:08.356Z,64.92
2019-03-24T10:09:34.570Z,60.23
2019-03-24T10:12:00.674Z,65.10
2019-03-24T10:14:26.895Z,64.07
2019-03-24T10:16:53.005Z,56.18
2019-03-24T10:19:19.219Z,61.10
2019-03-24T10:21:45.379Z,56.90
2019-03-24T10:24:11.769Z,60.67
2019-03-24T10:26:37.948Z,55.10
2019-03-24T10:29:04.126Z,55.10
2019-03-24T10:31:30.406Z,59.60
2019-03-24T10:33:56.587Z,59.53
2019-03-24T10:36:22.813Z,59.25
2019-03-24T10:38:48.960Z,59.60
2019-03-24T10:41:15.196Z,60.38
2019-03-24T10:43:41.350Z,57.80
2019-03-24T10:46:07.582Z,57.70
2019-03-24T10:48:34.066Z,60.45
2019-03-24T10:51:00.401Z,56.55
2019-03-24T10:53:26.500Z,60.15
2019-03-24T10:55:52.808Z,58.92
2019-03-24T10:58:18.930Z,58.13
2019-03-24T11:00:45.414Z,62.67
2019-03-24T11:03:11.835Z,60.17
2019-03-24T11:05:39.056Z,64.53
2019-03-24T11:08:05.446Z,69.42
2019-03-24T11:10:31.814Z,65.05
2019-03-24T11:12:57.953Z,67.27
2019-03-24T11:15:24.139Z,65.05
2019-03-24T11:17:50.278Z,64.40
2019-03-24T11:20:16.580Z,58.25
2019-03-24T11:22:42.743Z,66.05
2019-03-24T11:25:09.521Z,69.50
2019-03-24T11:27:36.085Z,71.67
2019-03-24T11:30:03.543Z,68.30
2019-03-24T11:32:30.115Z,67.95
2019-03-24T11:34:56.340Z,69.70
2019-03-24T11:37:22.467Z,67.60
2019-03-24T11:39:48.686Z,65.37
2019-03-24T11:42:14.801Z,62.65
2019-03-24T11:44:41.080Z,56.75
2019-03-24T11:47:07.294Z,65.47
2019-03-24T11:49:33.464Z,58.13
2019-03-24T11:51:59.677Z,61.70
2019-03-24T11:54:25.849Z,59.00
2019-03-24T11:56:52.058Z,62.23
2019-03-24T11:59:18.181Z,62.03
2019-03-24T12:01:44.519Z,58.05
2019-03-24T12:04:10.806Z,56.77
2019-03-24T12:06:37.098Z,60.15
2019-03-24T12:09:04.963Z,58.98
2019-03-24T12:11:31.426Z,58.05
2019-03-24T12:13:57.705Z,61.28
2019-03-24T12:16:24.078Z,59.55
2019-03-24T12:18:50.394Z,64.53
2019-03-24T12:21:16.740Z,64.25
2019-03-24T12:23:42.967Z,59.98
2019-03-24T12:26:09.199Z,62.27
2019-03-24T12:28:35.387Z,59.15
2019-03-24T12:31:01.735Z,60.65
2019-03-24T12:33:27.885Z,55.08
2019-03-24T12:35:54.052Z,59.35
2019-03-24T12:38:20.242Z,59.18
2019-03-24T12:40:47.205Z,63.13
2019-03-24T12:43:19.537Z,56.02
2019-03-24T12:45:42.155Z,56.40
2019-03-24T12:48:08.518Z,54.48
2019-03-24T12:50:35.850Z,55.30
2019-03-24T12:53:02.206Z,75.25
2019-03-24T12:55:28.340Z,64.62
2019-03-24T12:57:54.650Z,53.52
2019-03-24T13:00:36.044Z,62.35
2019-03-24T13:03:02.845Z,55.83
2019-03-24T13:05:29.068Z,57.27
2019-03-24T13:07:58.804Z,56.90
2019-03-24T13:10:24.996Z,52.05
2019-03-24T13:12:51.113Z,53.95
2019-03-24T13:15:17.323Z,55.88
2019-03-24T13:17:43.448Z,53.83
2019-03-24T13:20:19.777Z,59.83
2019-03-24T13:22:38.202Z,56.30
2019-03-24T13:25:05.530Z,56.25
2019-03-24T13:27:31.644Z,55.17
2019-03-24T13:29:57.865Z,52.25
2019-03-24T13:32:23.977Z,50.10
2019-03-24T13:34:50.179Z,51.42
2019-03-24T13:37:16.495Z,52.60
2019-03-24T13:39:42.693Z,50.12
2019-03-24T13:42:08.972Z,51.30
2019-03-24T13:44:35.224Z,47.85
2019-03-24T13:47:01.498Z,44.18
2019-03-24T13:49:27.705Z,48.13
2019-03-24T13:51:53.837Z,48.78
2019-03-24T13:54:20.147Z,44.38
2019-03-24T13:56:46.246Z,46.20
2019-03-24T13:59:12.505Z,50.58
2019-03-24T14:01:38.771Z,46.53
2019-03-24T14:04:04.974Z,47.93
2019-03-24T14:06:31.095Z,45.43
2019-03-24T14:08:58.314Z,43.95
2019-03-24T14:11:24.525Z,49.03
2019-03-24T14:13:50.736Z,44.20
2019-03-24T14:16:17.063Z,41.80
2019-03-24T14:18:43.428Z,43.63
2019-03-24T14:21:09.812Z,51.90
2019-03-24T14:23:36.176Z,55.65
2019-03-24T14:26:02.705Z,46.80
2019-03-24T14:28:28.911Z,43.48
2019-03-24T14:30:55.231Z,50.90
2019-03-24T14:33:21.526Z,42.67
2019-03-24T14:35:47.731Z,41.55
2019-03-24T14:38:13.844Z,40.88
2019-03-24T14:40:40.195Z,39.95
2019-03-24T14:43:06.623Z,40.80
2019-03-24T14:45:32.952Z,36.93
2019-03-24T14:48:00.467Z,40.43
2019-03-24T14:50:26.677Z,37.63
2019-03-24T14:52:52.825Z,41.80
2019-03-24T14:55:19.057Z,38.63
2019-03-24T14:57:45.176Z,34.88
2019-03-24T15:00:11.826Z,37.00
2019-03-24T15:02:40.767Z,37.58
2019-03-24T15:05:06.772Z,36.23
2019-03-24T15:07:33.041Z,39.18
2019-03-24T15:09:59.214Z,37.38
2019-03-24T15:12:25.352Z,35.73
2019-03-24T15:14:51.671Z,32.45
2019-03-24T15:17:17.838Z,33.30
2019-03-24T15:19:44.024Z,29.77
2019-03-24T15:22:10.223Z,33.02
2019-03-24T15:24:36.467Z,30.48
2019-03-24T15:27:03.894Z,29.20
2019-03-24T15:29:31.884Z,31.45
2019-03-24T15:31:58.028Z,30.70
2019-03-24T15:34:24.424Z,33.45
2019-03-24T15:36:51.455Z,32.23
2019-03-24T15:39:18.654Z,34.55
2019-03-24T15:41:45.064Z,36.25
2019-03-24T15:44:11.347Z,28.70
2019-03-24T15:46:37.586Z,30.15
2019-03-24T15:49:03.824Z,28.17
2019-03-24T15:51:30.169Z,29.90
2019-03-24T15:53:56.659Z,29.45
2019-03-24T15:56:23.213Z,26.57
2019-03-24T15:58:49.444Z,28.10
2019-03-24T16:01:15.709Z,28.15
2019-03-24T16:03:41.982Z,32.63
2019-03-24T16:06:08.309Z,28.87
2019-03-24T16:08:34.444Z,27.70
2019-03-24T16:11:00.732Z,27.30
2019-03-24T16:13:27.115Z,26.12
2019-03-24T16:15:54.586Z,34.38
2019-03-24T16:18:20.890Z,32.55
2019-03-24T16:20:47.194Z,37.83
2019-03-24T16:23:13.596Z,35.68
2019-03-24T16:25:39.886Z,33.75
2019-03-24T16:28:06.314Z,31.35
2019-03-24T16:30:32.439Z,34.53
2019-03-24T16:32:58.747Z,30.97
2019-03-24T16:35:25.093Z,29.72
2019-03-24T16:37:51.358Z,36.38
2019-03-24T16:40:17.470Z,35.17
2019-03-24T16:42:43.766Z,30.00
2019-03-24T16:45:10.158Z,30.72
2019-03-24T16:47:36.390Z,34.18
2019-03-24T16:50:04.902Z,31.02
2019-03-24T16:52:31.146Z,33.42
2019-03-24T16:54:57.339Z,32.85
2019-03-24T16:57:24.742Z,30.50
2019-03-24T16:59:50.915Z,31.42
2019-03-24T17:02:17.301Z,28.83
2019-03-24T17:04:43.484Z,31.42
2019-03-24T17:07:09.852Z,35.95
2019-03-24T17:09:36.032Z,35.75
2019-03-24T17:12:04.756Z,30.48
2019-03-24T17:14:31.040Z,32.10
2019-03-24T17:16:58.175Z,31.37
2019-03-24T17:19:24.432Z,31.05
2019-03-24T17:21:50.706Z,34.85
2019-03-24T17:24:16.952Z,26.40
2019-03-24T17:26:43.299Z,31.73
2019-03-24T17:29:09.569Z,29.55
2019-03-24T17:31:38.190Z,28.10
2019-03-24T17:34:04.562Z,33.45
2019-03-24T17:36:30.831Z,31.80
2019-03-24T17:38:57.052Z,30.60
2019-03-24T17:41:23.362Z,35.33
2019-03-24T17:43:49.629Z,41.20
2019-03-24T17:46:16.323Z,40.50
2019-03-24T17:48:42.534Z,43.70
2019-03-24T17:51:08.841Z,40.43
2019-03-24T17:53:35.524Z,51.25
2019-03-24T17:56:02.468Z,42.27
2019-03-24T17:58:28.721Z,45.92
2019-03-24T18:00:56.690Z,46.60
2019-03-24T18:03:22.853Z,42.30
2019-03-24T18:05:50.120Z,47.13
2019-03-24T18:08:16.271Z,46.63
2019-03-24T18:10:42.503Z,44.90
2019-03-24T18:13:08.662Z,45.03
2019-03-24T18:15:35.097Z,44.48
2019-03-24T18:18:01.255Z,46.23
2019-03-24T18:20:31.372Z,51.37
2019-03-24T18:22:57.579Z,56.50
2019-03-24T18:25:23.981Z,47.45
2019-03-24T18:27:50.150Z,54.53
2019-03-24T18:30:16.763Z,50.05
2019-03-24T18:32:43.202Z,55.12
2019-03-24T18:35:09.959Z,48.55
2019-03-24T18:37:36.408Z,53.55
2019-03-24T18:40:05.572Z,48.15
2019-03-24T18:42:31.694Z,49.35
2019-03-24T18:44:58.060Z,52.83
2019-03-24T18:47:24.238Z,50.17
2019-03-24T18:49:50.533Z,60.55
2019-03-24T18:52:22.649Z,53.83
2019-03-24T18:54:44.831Z,47.33
2019-03-24T18:57:11.157Z,50.73
2019-03-24T18:59:37.416Z,48.33
2019-03-24T19:02:03.824Z,51.13
2019-03-24T19:04:30.038Z,56.92
2019-03-24T19:06:56.600Z,58.78
2019-03-24T19:09:22.873Z,54.38
2019-03-24T19:11:49.141Z,56.15
2019-03-24T19:14:17.056Z,49.75
2019-03-24T19:16:43.179Z,52.15
2019-03-24T19:19:09.505Z,61.63
2019-03-24T19:21:35.919Z,50.05
2019-03-24T19:24:02.226Z,59.23
2019-03-24T19:26:28.431Z,58.58
2019-03-24T19:28:54.636Z,54.80
2019-03-24T19:31:20.882Z,58.75
2019-03-24T19:33:47.102Z,63.33
2019-03-24T19:36:13.420Z,62.43
2019-03-24T19:38:40.517Z,56.25
2019-03-24T19:41:06.772Z,62.80
2019-03-24T19:43:33.047Z,61.92
2019-03-24T19:45:59.309Z,60.88
2019-03-24T19:48:26.519Z,69.70
2019-03-24T19:50:52.706Z,71.12
2019-03-24T19:53:18.982Z,72.42
2019-03-24T19:55:45.315Z,62.67
2019-03-24T19:58:11.475Z,70.17
2019-03-24T20:00:37.681Z,67.47
2019-03-24T20:03:04.097Z,67.75
2019-03-24T20:05:30.309Z,68.65
2019-03-24T20:07:56.662Z,76.97
2019-03-24T20:10:22.976Z,80.30
2019-03-24T20:12:49.145Z,77.12
2019-03-24T20:15:15.690Z,72.25
2019-03-24T20:17:42.017Z,79.22
2019-03-24T20:20:08.813Z,86.00
2019-03-24T20:22:35.030Z,74.20
2019-03-24T20:25:01.127Z,80.30
2019-03-24T20:27:27.529Z,79.97
2019-03-24T20:29:53.651Z,86.12
2019-03-24T20:32:19.857Z,90.28
2019-03-24T20:34:46.160Z,85.70
2019-03-24T20:37:12.375Z,93.20
2019-03-24T20:39:38.518Z,91.02
2019-03-24T20:42:04.904Z,92.75
2019-03-24T20:44:31.175Z,94.32
2019-03-24T20:46:57.443Z,99.22
2019-03-24T20:49:23.711Z,107.12
2019-03-24T20:51:49.941Z,99.58
2019-03-24T20:54:16.108Z,101.90
2019-03-24T20:56:42.351Z,96.28
2019-03-24T20:59:08.646Z,89.95
2019-03-24T21:01:35.224Z,105.12
2019-03-24T21:04:01.463Z,103.12
2019-03-24T21:06:27.674Z,108.52
2019-03-24T21:08:53.910Z,99.55
2019-03-24T21:11:20.498Z,102.15
2019-03-24T21:13:46.795Z,103.42
2019-03-24T21:16:13.158Z,96.15
2019-03-24T21:18:39.486Z,97.95
2019-03-24T21:21:05.673Z,109.40
2019-03-24T21:23:31.915Z,100.25
2019-03-24T21:25:58.047Z,98.67
2019-03-24T21:28:25.482Z,98.95
2019-03-24T21:30:51.646Z,110.63
2019-03-24T21:33:17.959Z,105.00
2019-03-24T21:35:44.350Z,106.72
2019-03-24T21:38:10.512Z,106.60
2019-03-24T21:40:36.809Z,98.03
2019-03-24T21:43:03.415Z,103.70
2019-03-24T21:45:29.805Z,98.82
2019-03-24T21:47:56.512Z,104.35
2019-03-24T21:50:22.971Z,102.82
2019-03-24T21:52:49.344Z,99.72
2019-03-24T21:55:15.431Z,109.05
2019-03-24T21:57:41.746Z,98.92
2019-03-24T22:00:08.751Z,100.30
2019-03-24T22:02:35.198Z,100.15
2019-03-24T22:05:01.618Z,104.63
2019-03-24T22:07:28.938Z,104.45
2019-03-24T22:09:55.090Z,94.22
2019-03-24T22:12:21.266Z,95.83
2019-03-24T22:14:47.528Z,91.45
2019-03-24T22:17:13.753Z,84.05
2019-03-24T22:19:39.878Z,86.05
2019-03-24T22:22:06.182Z,79.82
2019-03-24T22:24:32.428Z,86.15
2019-03-24T22:26:58.744Z,83.22
2019-03-24T22:29:24.959Z,87.00
2019-03-24T22:31:51.080Z,85.45
2019-03-24T22:34:17.348Z,84.32
2019-03-24T22:36:43.503Z,80.97
2019-03-24T22:39:09.676Z,81.72
2019-03-24T22:41:35.960Z,74.17
2019-03-24T22:44:02.813Z,78.45
2019-03-24T22:46:28.977Z,84.85
2019-03-24T22:48:55.239Z,89.05
2019-03-24T22:51:21.600Z,83.42
2019-03-24T22:53:47.881Z,78.30
2019-03-24T22:56:14.152Z,83.33
2019-03-24T22:58:40.468Z,77.10
2019-03-24T23:01:06.777Z,70.70
2019-03-24T23:03:34.908Z,76.75
2019-03-24T23:06:01.192Z,72.20
2019-03-24T23:08:27.439Z,75.52
2019-03-24T23:10:53.741Z,79.05
2019-03-24T23:13:19.851Z,75.78
2019-03-24T23:15:46.083Z,72.67
2019-03-24T23:18:12.197Z,77.50
2019-03-24T23:20:38.426Z,72.80
2019-03-24T23:23:04.590Z,74.50
2019-03-24T23:25:30.763Z,73.90
2019-03-24T23:27:57.260Z,75.45
2019-03-24T23:30:23.438Z,73.87
2019-03-24T23:32:49.792Z,76.87
2019-03-24T23:35:16.061Z,74.53
2019-03-24T23:37:42.247Z,66.15
2019-03-24T23:40:08.793Z,68.85
2019-03-24T23:42:35.024Z,67.30
2019-03-24T23:45:01.134Z,68.45
2019-03-24T23:47:27.315Z,71.90
2019-03-24T23:49:53.473Z,69.12
2019-03-24T23:52:19.672Z,74.00
2019-03-24T23:54:45.919Z,70.85
2019-03-24T23:57:12.100Z,77.70
2019-03-24T23:59:38.331Z,73.47
